DNKN/KAN METAR and TAF weather

Enter ICAO airport designator
Station Type Date Time Source
DNKN METAR 2022/12/08 12:00 UTC NOAA

DNKN 081200Z 07014KT 4000 HZ NSC 28/04 Q1017 BECMG 5000


Station Type Date Time Source
DNKN Decoded METAR 2022/12/08 12:00 UTC NOAA

Kano, Nigeria (DNKN) 12-03N 008-32E 481M
Dec 08, 2022 - 07:00 AM EST / 2022.12.08 1200 UTC
Wind: from the ENE (070 degrees) at 16 MPH (14 KT):0
Visibility: 2 mile(s):0
Weather: haze
Temperature: 82 F (28 C)
Dew Point: 39 F (4 C)
Relative Humidity: 21%
Pressure (altimeter): 30.03 in. Hg (1017 hPa)
ob: DNKN 081200Z 07014KT 4000 HZ NSC 28/04 Q1017 BECMG 5000
cycle: 12

Station Type Date Time Source
DNKN TAF 2022/12/08 12:06 UTC NOAA

TAF TAF DNKN 081100Z 0812/0918 06010KT 3000 HZ NSC
BECMG 0815/0817 7000 NSW

Example: see airport list